sensor_id;sensor_type;location;lat;lon;timestamp;pressure;altitude;pressure_sealevel;temperature;humidity
44079;BME280;29744;49.078;12.878;2024-03-08T00:04:32;96531.22;;;13.43;38.60
44079;BME280;29744;49.078;12.878;2024-03-08T00:09:32;96528.53;;;13.43;38.91
44079;BME280;29744;49.078;12.878;2024-03-08T00:14:33;96521.56;;;13.42;38.69
44079;BME280;29744;49.078;12.878;2024-03-08T00:19:33;96518.88;;;13.42;38.43
44079;BME280;29744;49.078;12.878;2024-03-08T00:24:33;96514.59;;;13.41;38.40
44079;BME280;29744;49.078;12.878;2024-03-08T00:29:34;96506.50;;;13.41;38.99
44079;BME280;29744;49.078;12.878;2024-03-08T00:34:37;96509.53;;;13.40;38.34
44079;BME280;29744;49.078;12.878;2024-03-08T00:39:38;96504.13;;;13.40;38.57
44079;BME280;29744;49.078;12.878;2024-03-08T00:44:38;96497.94;;;13.39;38.73
44079;BME280;29744;49.078;12.878;2024-03-08T00:49:41;96493.63;;;13.38;38.39
44079;BME280;29744;49.078;12.878;2024-03-08T00:54:41;96484.75;;;13.38;38.65
44079;BME280;29744;49.078;12.878;2024-03-08T00:59:43;96486.66;;;13.37;38.71
44079;BME280;29744;49.078;12.878;2024-03-08T01:04:43;96474.31;;;13.36;38.87
44079;BME280;29744;49.078;12.878;2024-03-08T01:09:43;96467.81;;;13.37;38.73
44079;BME280;29744;49.078;12.878;2024-03-08T01:14:44;96462.75;;;13.36;38.45
44079;BME280;29744;49.078;12.878;2024-03-08T01:19:44;96459.25;;;13.35;38.49
44079;BME280;29744;49.078;12.878;2024-03-08T01:24:45;96451.50;;;13.34;38.64
44079;BME280;29744;49.078;12.878;2024-03-08T01:29:45;96446.09;;;13.34;38.51
44079;BME280;29744;49.078;12.878;2024-03-08T01:34:45;96436.44;;;13.33;38.90
44079;BME280;29744;49.078;12.878;2024-03-08T01:39:46;96436.75;;;13.31;38.97
44079;BME280;29744;49.078;12.878;2024-03-08T01:44:46;96431.38;;;13.31;38.55
44079;BME280;29744;49.078;12.878;2024-03-08T01:49:47;96427.09;;;13.30;38.70
44079;BME280;29744;49.078;12.878;2024-03-08T01:54:47;96424.41;;;13.30;38.88
44079;BME280;29744;49.078;12.878;2024-03-08T01:59:47;96416.63;;;13.29;38.91
44079;BME280;29744;49.078;12.878;2024-03-08T02:04:48;96419.31;;;13.29;38.63
44079;BME280;29744;49.078;12.878;2024-03-08T02:09:49;96407.75;;;13.28;38.95
44079;BME280;29744;49.078;12.878;2024-03-08T02:14:51;96410.44;;;13.28;38.84
44079;BME280;29744;49.078;12.878;2024-03-08T02:19:51;96414.25;;;13.27;38.93
44079;BME280;29744;49.078;12.878;2024-03-08T02:24:51;96407.28;;;13.26;38.99
44079;BME280;29744;49.078;12.878;2024-03-08T02:29:56;96402.69;;;13.27;38.76
44079;BME280;29744;49.078;12.878;2024-03-08T02:34:56;96388.75;;;13.24;38.99
44079;BME280;29744;49.078;12.878;2024-03-08T02:39:59;96388.75;;;13.24;38.63
44079;BME280;29744;49.078;12.878;2024-03-08T02:45:00;96386.38;;;13.23;38.72
44079;BME280;29744;49.078;12.878;2024-03-08T02:50:00;96375.59;;;13.23;38.52
44079;BME280;29744;49.078;12.878;2024-03-08T02:55:02;96380.19;;;13.22;38.73
44079;BME280;29744;49.078;12.878;2024-03-08T03:00:03;96390.16;;;13.22;38.61
44079;BME280;29744;49.078;12.878;2024-03-08T03:05:09;96379.41;;;13.22;38.56
44079;BME280;29744;49.078;12.878;2024-03-08T03:10:11;96381.28;;;13.21;38.61
44079;BME280;29744;49.078;12.878;2024-03-08T03:15:13;96378.59;;;13.21;38.73
44079;BME280;29744;49.078;12.878;2024-03-08T03:20:13;96371.63;;;13.20;38.82
44079;BME280;29744;49.078;12.878;2024-03-08T03:25:14;96363.56;;;13.20;38.65
44079;BME280;29744;49.078;12.878;2024-03-08T03:30:14;96363.88;;;13.19;39.07
44079;BME280;29744;49.078;12.878;2024-03-08T03:35:27;96355.78;;;13.19;38.53
44079;BME280;29744;49.078;12.878;2024-03-08T03:40:28;96351.50;;;13.18;38.97
44079;BME280;29744;49.078;12.878;2024-03-08T03:45:29;96346.13;;;13.18;38.76
44079;BME280;29744;49.078;12.878;2024-03-08T03:50:29;96346.13;;;13.18;38.87
44079;BME280;29744;49.078;12.878;2024-03-08T03:55:30;96348.34;;;13.16;38.49
44079;BME280;29744;49.078;12.878;2024-03-08T04:00:30;96344.53;;;13.17;38.61
44079;BME280;29744;49.078;12.878;2024-03-08T04:05:31;96350.25;;;13.15;39.00
44079;BME280;29744;49.078;12.878;2024-03-08T04:10:31;96347.56;;;13.15;38.84
44079;BME280;29744;49.078;12.878;2024-03-08T04:15:32;96342.16;;;13.15;38.60
44079;BME280;29744;49.078;12.878;2024-03-08T04:20:32;96337.09;;;13.14;38.83
44079;BME280;29744;49.078;12.878;2024-03-08T04:25:32;96330.59;;;13.15;39.04
44079;BME280;29744;49.078;12.878;2024-03-08T04:30:33;96330.91;;;13.13;39.05
44079;BME280;29744;49.078;12.878;2024-03-08T04:35:33;96323.63;;;13.14;38.79
44079;BME280;29744;49.078;12.878;2024-03-08T04:40:34;96329.03;;;13.14;38.62
44079;BME280;29744;49.078;12.878;2024-03-08T04:45:35;96315.25;;;13.15;38.53
44079;BME280;29744;49.078;12.878;2024-03-08T04:50:35;96311.91;;;13.18;38.97
44079;BME280;29744;49.078;12.878;2024-03-08T04:55:35;96312.53;;;13.24;38.84
44079;BME280;29744;49.078;12.878;2024-03-08T05:00:37;96310.16;;;13.31;38.95
44079;BME280;29744;49.078;12.878;2024-03-08T05:05:37;96308.28;;;13.40;38.89
44079;BME280;29744;49.078;12.878;2024-03-08T05:10:38;96306.06;;;13.51;39.03
44079;BME280;29744;49.078;12.878;2024-03-08T05:15:38;96298.41;;;13.62;38.63
44079;BME280;29744;49.078;12.878;2024-03-08T05:20:39;96298.53;;;13.74;38.46
44079;BME280;29744;49.078;12.878;2024-03-08T05:25:41;96286.81;;;13.87;38.82
44079;BME280;29744;49.078;12.878;2024-03-08T05:30:41;96289.28;;;14.01;38.61
44079;BME280;29744;49.078;12.878;2024-03-08T05:35:42;96283.69;;;14.14;38.48
44079;BME280;29744;49.078;12.878;2024-03-08T05:40:42;96278.88;;;14.29;38.24
44079;BME280;29744;49.078;12.878;2024-03-08T05:45:43;96291.81;;;14.44;38.27
44079;BME280;29744;49.078;12.878;2024-03-08T05:50:43;96279.53;;;14.55;38.23
44079;BME280;29744;49.078;12.878;2024-03-08T05:55:44;96280.72;;;14.66;38.08
44079;BME280;29744;49.078;12.878;2024-03-08T06:00:44;96277.19;;;14.74;38.01
44079;BME280;29744;49.078;12.878;2024-03-08T06:05:46;96277.13;;;14.83;38.10
44079;BME280;29744;49.078;12.878;2024-03-08T06:10:47;96273.09;;;14.89;38.08
44079;BME280;29744;49.078;12.878;2024-03-08T06:15:52;96272.56;;;14.96;37.88
44079;BME280;29744;49.078;12.878;2024-03-08T06:20:52;96278.09;;;14.99;37.78
44079;BME280;29744;49.078;12.878;2024-03-08T06:25:53;96282.88;;;15.02;37.20
44079;BME280;29744;49.078;12.878;2024-03-08T06:30:53;96285.25;;;15.04;37.25
44079;BME280;29744;49.078;12.878;2024-03-08T06:35:54;96280.63;;;15.04;37.42
44079;BME280;29744;49.078;12.878;2024-03-08T06:40:57;96278.72;;;15.05;36.74
44079;BME280;29744;49.078;12.878;2024-03-08T06:45:57;96276.81;;;15.05;36.52
44079;BME280;29744;49.078;12.878;2024-03-08T06:50:57;96275.34;;;15.08;36.60
44079;BME280;29744;49.078;12.878;2024-03-08T06:55:58;96277.28;;;15.07;36.91
44079;BME280;29744;49.078;12.878;2024-03-08T07:00:58;96266.78;;;15.06;36.57
44079;BME280;29744;49.078;12.878;2024-03-08T07:06:00;96271.41;;;15.05;36.59
44079;BME280;29744;49.078;12.878;2024-03-08T07:11:02;96271.75;;;15.04;36.29
44079;BME280;29744;49.078;12.878;2024-03-08T07:16:04;96268.53;;;15.02;36.90
44079;BME280;29744;49.078;12.878;2024-03-08T07:21:05;96280.00;;;14.99;36.48
44079;BME280;29744;49.078;12.878;2024-03-08T07:26:06;96263.34;;;14.97;36.51
44079;BME280;29744;49.078;12.878;2024-03-08T07:31:06;96257.81;;;14.93;36.51
44079;BME280;29744;49.078;12.878;2024-03-08T07:36:21;96259.28;;;14.91;37.08
44079;BME280;29744;49.078;12.878;2024-03-08T07:41:22;96252.63;;;14.88;36.77
44079;BME280;29744;49.078;12.878;2024-03-08T07:46:23;96252.50;;;14.85;36.56
44079;BME280;29744;49.078;12.878;2024-03-08T07:51:23;96249.31;;;14.82;37.14
44079;BME280;29744;49.078;12.878;2024-03-08T07:56:24;96250.78;;;14.80;36.67
44079;BME280;29744;49.078;12.878;2024-03-08T08:01:25;96246.81;;;14.77;37.07
44079;BME280;29744;49.078;12.878;2024-03-08T08:06:25;96245.56;;;14.75;37.17
44079;BME280;29744;49.078;12.878;2024-03-08T08:11:27;96234.31;;;14.73;37.00
44079;BME280;29744;49.078;12.878;2024-03-08T08:16:28;96230.38;;;14.70;36.99
44079;BME280;29744;49.078;12.878;2024-03-08T08:21:29;96225.28;;;14.69;36.56
44079;BME280;29744;49.078;12.878;2024-03-08T08:26:29;96209.44;;;14.67;37.13
44079;BME280;29744;49.078;12.878;2024-03-08T08:31:31;96225.50;;;14.64;35.14
44079;BME280;29744;49.078;12.878;2024-03-08T08:36:32;96215.00;;;14.41;32.81
44079;BME280;29744;49.078;12.878;2024-03-08T08:41:32;96215.84;;;14.04;32.65
44079;BME280;29744;49.078;12.878;2024-03-08T08:46:32;96211.50;;;13.82;32.46
44079;BME280;29744;49.078;12.878;2024-03-08T08:51:33;96200.59;;;13.70;32.97
44079;BME280;29744;49.078;12.878;2024-03-08T08:56:33;96196.97;;;13.66;33.05
44079;BME280;29744;49.078;12.878;2024-03-08T09:01:34;96189.53;;;13.63;33.25
44079;BME280;29744;49.078;12.878;2024-03-08T09:06:34;96181.44;;;13.63;33.46
44079;BME280;29744;49.078;12.878;2024-03-08T09:11:36;96176.06;;;13.63;33.34
44079;BME280;29744;49.078;12.878;2024-03-08T09:16:38;96166.53;;;13.65;33.63
44079;BME280;29744;49.078;12.878;2024-03-08T09:21:39;96160.81;;;13.67;34.04
44079;BME280;29744;49.078;12.878;2024-03-08T09:26:40;96146.22;;;13.68;34.32
44079;BME280;29744;49.078;12.878;2024-03-08T09:31:42;96143.22;;;13.69;34.38
44079;BME280;29744;49.078;12.878;2024-03-08T09:36:42;96140.97;;;13.71;34.19
44079;BME280;29744;49.078;12.878;2024-03-08T09:41:43;96126.72;;;13.71;34.19
44079;BME280;29744;49.078;12.878;2024-03-08T09:46:45;96128.28;;;13.72;34.32
44079;BME280;29744;49.078;12.878;2024-03-08T09:51:48;96135.59;;;13.71;34.74
44079;BME280;29744;49.078;12.878;2024-03-08T09:56:52;96123.69;;;13.72;35.04
44079;BME280;29744;49.078;12.878;2024-03-08T10:01:52;96117.53;;;13.72;34.66
44079;BME280;29744;49.078;12.878;2024-03-08T10:07:00;96108.31;;;13.73;35.07
44079;BME280;29744;49.078;12.878;2024-03-08T10:12:01;96102.13;;;13.72;35.27
44079;BME280;29744;49.078;12.878;2024-03-08T10:17:03;96095.97;;;13.72;34.88
44079;BME280;29744;49.078;12.878;2024-03-08T10:22:03;96101.34;;;13.72;35.03
44079;BME280;29744;49.078;12.878;2024-03-08T10:27:05;96085.19;;;13.72;35.33
44079;BME280;29744;49.078;12.878;2024-03-08T10:32:07;96088.19;;;13.70;35.62
44079;BME280;29744;49.078;12.878;2024-03-08T10:37:13;96077.41;;;13.70;35.28
44079;BME280;29744;49.078;12.878;2024-03-08T10:42:22;96072.34;;;13.69;35.26
44079;BME280;29744;49.078;12.878;2024-03-08T10:47:29;96076.16;;;13.68;35.71
44079;BME280;29744;49.078;12.878;2024-03-08T10:52:30;96067.28;;;13.67;35.61
44079;BME280;29744;49.078;12.878;2024-03-08T10:57:31;96057.63;;;13.66;35.62
44079;BME280;29744;49.078;12.878;2024-03-08T11:02:32;96058.75;;;13.65;36.06
44079;BME280;29744;49.078;12.878;2024-03-08T11:07:35;96046.38;;;13.64;35.95
44079;BME280;29744;49.078;12.878;2024-03-08T11:12:38;96044.50;;;13.65;36.05
44079;BME280;29744;49.078;12.878;2024-03-08T11:22:39;96026.28;;;13.62;35.87
44079;BME280;29744;49.078;12.878;2024-03-08T11:27:52;96025.50;;;13.61;36.11
44079;BME280;29744;49.078;12.878;2024-03-08T11:32:53;96022.78;;;13.61;36.31
44079;BME280;29744;49.078;12.878;2024-03-08T11:37:53;96016.63;;;13.61;36.18
44079;BME280;29744;49.078;12.878;2024-03-08T11:42:54;96006.16;;;13.59;36.18
44079;BME280;29744;49.078;12.878;2024-03-08T11:47:55;96000.00;;;13.59;36.00
44079;BME280;29744;49.078;12.878;2024-03-08T11:53:05;96005.72;;;13.57;36.34
44079;BME280;29744;49.078;12.878;2024-03-08T11:58:06;96003.81;;;13.58;36.19
44079;BME280;29744;49.078;12.878;2024-03-08T12:03:08;96000.31;;;13.57;36.63
44079;BME280;29744;49.078;12.878;2024-03-08T12:08:12;95981.78;;;13.55;36.37
44079;BME280;29744;49.078;12.878;2024-03-08T12:13:13;95972.91;;;13.55;36.27
44079;BME280;29744;49.078;12.878;2024-03-08T12:18:14;95971.00;;;13.55;36.51
44079;BME280;29744;49.078;12.878;2024-03-08T12:23:15;95974.81;;;13.54;36.36
44079;BME280;29744;49.078;12.878;2024-03-08T12:28:18;95963.25;;;13.54;36.82
44079;BME280;29744;49.078;12.878;2024-03-08T12:33:19;95965.16;;;13.53;36.62
44079;BME280;29744;49.078;12.878;2024-03-08T12:38:21;95960.88;;;13.52;36.36
44079;BME280;29744;49.078;12.878;2024-03-08T12:43:25;95954.72;;;13.52;36.53
44079;BME280;29744;49.078;12.878;2024-03-08T12:48:25;95955.84;;;13.51;36.73
44079;BME280;29744;49.078;12.878;2024-03-08T12:53:26;95944.25;;;13.50;36.88
44079;BME280;29744;49.078;12.878;2024-03-08T12:58:28;95933.81;;;13.49;37.05
44079;BME280;29744;49.078;12.878;2024-03-08T13:03:29;95931.91;;;13.49;36.79
44079;BME280;29744;49.078;12.878;2024-03-08T13:08:29;95927.63;;;13.48;36.95
44079;BME280;29744;49.078;12.878;2024-03-08T13:13:31;95929.56;;;13.48;36.81
44079;BME280;29744;49.078;12.878;2024-03-08T13:18:33;95927.63;;;13.48;36.78
44079;BME280;29744;49.078;12.878;2024-03-08T13:23:34;95923.38;;;13.47;36.65
44079;BME280;29744;49.078;12.878;2024-03-08T13:28:39;95920.69;;;13.47;37.33
44079;BME280;29744;49.078;12.878;2024-03-08T13:33:44;95910.69;;;13.48;37.21
44079;BME280;29744;49.078;12.878;2024-03-08T13:38:47;95902.16;;;13.46;37.05
44079;BME280;29744;49.078;12.878;2024-03-08T13:43:48;95904.06;;;13.45;36.87
44079;BME280;29744;49.078;12.878;2024-03-08T13:48:50;95898.66;;;13.45;36.76
44079;BME280;29744;49.078;12.878;2024-03-08T13:53:50;95895.50;;;13.43;36.77
44079;BME280;29744;49.078;12.878;2024-03-08T13:58:51;95894.41;;;13.44;36.98
44079;BME280;29744;49.078;12.878;2024-03-08T14:03:51;95890.13;;;13.43;36.69
44079;BME280;29744;49.078;12.878;2024-03-08T14:08:51;95884.75;;;13.43;37.23
44079;BME280;29744;49.078;12.878;2024-03-08T14:13:53;95872.41;;;13.42;36.81
44079;BME280;29744;49.078;12.878;2024-03-08T14:18:53;95873.50;;;13.41;36.81
44079;BME280;29744;49.078;12.878;2024-03-08T14:23:54;95864.31;;;13.42;36.99
44079;BME280;29744;49.078;12.878;2024-03-08T14:28:54;95868.44;;;13.40;36.98
44079;BME280;29744;49.078;12.878;2024-03-08T14:33:54;95857.34;;;13.41;37.23
44079;BME280;29744;49.078;12.878;2024-03-08T14:38:57;95852.28;;;13.40;37.44
44079;BME280;29744;49.078;12.878;2024-03-08T14:43:57;95849.91;;;13.38;37.24
44079;BME280;29744;49.078;12.878;2024-03-08T14:48:58;95839.13;;;13.38;37.31
44079;BME280;29744;49.078;12.878;2024-03-08T14:53:58;95838.34;;;13.38;37.21
44079;BME280;29744;49.078;12.878;2024-03-08T14:58:58;95827.56;;;13.38;37.52
44079;BME280;29744;49.078;12.878;2024-03-08T15:03:59;95831.38;;;13.37;36.83
44079;BME280;29744;49.078;12.878;2024-03-08T15:09:08;95832.16;;;13.37;37.05
44079;BME280;29744;49.078;12.878;2024-03-08T15:14:12;95824.09;;;13.37;37.45
44079;BME280;29744;49.078;12.878;2024-03-08T15:19:13;95813.31;;;13.37;37.60
44079;BME280;29744;49.078;12.878;2024-03-08T15:24:15;95810.94;;;13.36;37.51
44079;BME280;29744;49.078;12.878;2024-03-08T15:29:21;95812.84;;;13.35;37.51
44079;BME280;29744;49.078;12.878;2024-03-08T15:34:26;95804.00;;;13.35;37.23
44079;BME280;29744;49.078;12.878;2024-03-08T15:39:27;95799.72;;;13.34;37.31
44079;BME280;29744;49.078;12.878;2024-03-08T15:44:27;95796.25;;;13.33;37.57
44079;BME280;29744;49.078;12.878;2024-03-08T15:49:28;95799.72;;;13.34;37.64
44079;BME280;29744;49.078;12.878;2024-03-08T15:54:28;95790.41;;;13.31;37.15
44079;BME280;29744;49.078;12.878;2024-03-08T15:59:29;95797.69;;;13.31;37.57
44079;BME280;29744;49.078;12.878;2024-03-08T16:04:33;95795.00;;;13.31;37.42
44079;BME280;29744;49.078;12.878;2024-03-08T16:09:34;95787.72;;;13.31;37.48
44079;BME280;29744;49.078;12.878;2024-03-08T16:14:38;95788.16;;;13.33;37.68
44079;BME280;29744;49.078;12.878;2024-03-08T16:19:38;95786.38;;;13.37;37.46
44079;BME280;29744;49.078;12.878;2024-03-08T16:24:43;95781.94;;;13.41;37.33
44079;BME280;29744;49.078;12.878;2024-03-08T16:29:43;95780.59;;;13.47;37.26
44079;BME280;29744;49.078;12.878;2024-03-08T16:34:44;95783.56;;;13.54;37.51
44079;BME280;29744;49.078;12.878;2024-03-08T16:39:45;95783.78;;;13.62;37.29
44079;BME280;29744;49.078;12.878;2024-03-08T16:44:45;95787.19;;;13.71;37.83
44079;BME280;29744;49.078;12.878;2024-03-08T16:49:45;95770.63;;;13.81;37.35
44079;BME280;29744;49.078;12.878;2024-03-08T16:54:46;95769.06;;;13.92;37.59
44079;BME280;29744;49.078;12.878;2024-03-08T16:59:47;95760.53;;;14.02;37.23
44079;BME280;29744;49.078;12.878;2024-03-08T17:04:47;95764.34;;;14.13;37.50
44079;BME280;29744;49.078;12.878;2024-03-08T17:09:48;95767.09;;;14.26;37.29
44079;BME280;29744;49.078;12.878;2024-03-08T17:14:48;95774.38;;;14.37;37.31
44079;BME280;29744;49.078;12.878;2024-03-08T17:19:49;95767.06;;;14.50;37.09
44079;BME280;29744;49.078;12.878;2024-03-08T17:24:50;95768.97;;;14.62;37.25
44079;BME280;29744;49.078;12.878;2024-03-08T17:29:51;95768.16;;;14.73;37.02
44079;BME280;29744;49.078;12.878;2024-03-08T17:34:51;95775.44;;;14.85;36.85
44079;BME280;29744;49.078;12.878;2024-03-08T17:39:52;95780.03;;;14.97;36.85
44079;BME280;29744;49.078;12.878;2024-03-08T17:44:55;95779.22;;;15.08;36.98
44079;BME280;29744;49.078;12.878;2024-03-08T17:49:57;95783.81;;;15.20;36.61
44079;BME280;29744;49.078;12.878;2024-03-08T17:54:57;95772.59;;;15.34;36.42
44079;BME280;29744;49.078;12.878;2024-03-08T17:59:58;95776.38;;;15.45;36.83
44079;BME280;29744;49.078;12.878;2024-03-08T18:04:58;95771.69;;;15.58;36.70
44079;BME280;29744;49.078;12.878;2024-03-08T18:10:01;95777.81;;;15.70;36.39
44079;BME280;29744;49.078;12.878;2024-03-08T18:15:01;95771.25;;;15.84;36.30
44079;BME280;29744;49.078;12.878;2024-03-08T18:20:02;95780.84;;;15.97;36.25
44079;BME280;29744;49.078;12.878;2024-03-08T18:25:02;95777.28;;;16.08;36.10
44079;BME280;29744;49.078;12.878;2024-03-08T18:30:06;95772.56;;;16.21;35.67
44079;BME280;29744;49.078;12.878;2024-03-08T18:35:16;95766.25;;;16.33;35.90
44079;BME280;29744;49.078;12.878;2024-03-08T18:40:17;95766.41;;;16.40;35.43
44079;BME280;29744;49.078;12.878;2024-03-08T18:45:22;95764.69;;;16.48;35.86
44079;BME280;29744;49.078;12.878;2024-03-08T18:50:25;95759.00;;;16.53;35.64
44079;BME280;29744;49.078;12.878;2024-03-08T18:55:28;95754.50;;;16.57;35.58
44079;BME280;29744;49.078;12.878;2024-03-08T19:00:29;95751.44;;;16.58;35.49
44079;BME280;29744;49.078;12.878;2024-03-08T19:05:37;95741.38;;;16.59;35.58
44079;BME280;29744;49.078;12.878;2024-03-08T19:10:40;95738.25;;;16.57;34.98
44079;BME280;29744;49.078;12.878;2024-03-08T19:15:40;95730.47;;;16.55;35.54
44079;BME280;29744;49.078;12.878;2024-03-08T19:20:43;95723.50;;;16.54;35.38
44079;BME280;29744;49.078;12.878;2024-03-08T19:25:43;95723.38;;;16.51;35.48
44079;BME280;29744;49.078;12.878;2024-03-08T19:30:44;95724.09;;;16.48;35.24
44079;BME280;29744;49.078;12.878;2024-03-08T19:35:45;95712.41;;;16.44;34.89
44079;BME280;29744;49.078;12.878;2024-03-08T19:40:47;95709.59;;;16.40;35.18
44079;BME280;29744;49.078;12.878;2024-03-08T19:45:48;95707.59;;;16.37;35.53
44079;BME280;29744;49.078;12.878;2024-03-08T19:50:52;95705.25;;;16.35;35.06
44079;BME280;29744;49.078;12.878;2024-03-08T19:55:52;95696.69;;;16.33;35.34
44079;BME280;29744;49.078;12.878;2024-03-08T20:00:55;95692.06;;;16.34;35.23
44079;BME280;29744;49.078;12.878;2024-03-08T20:05:55;95684.28;;;16.32;35.13
44079;BME280;29744;49.078;12.878;2024-03-08T20:10:58;95686.66;;;16.34;35.41
44079;BME280;29744;49.078;12.878;2024-03-08T20:16:06;95681.59;;;16.32;35.40
44079;BME280;29744;49.078;12.878;2024-03-08T20:21:09;95674.25;;;16.33;35.69
44079;BME280;29744;49.078;12.878;2024-03-08T20:26:09;95667.28;;;16.32;35.29
44079;BME280;29744;49.078;12.878;2024-03-08T20:31:11;95661.88;;;16.32;35.18
44079;BME280;29744;49.078;12.878;2024-03-08T20:36:13;95663.78;;;16.31;35.68
44079;BME280;29744;49.078;12.878;2024-03-08T20:41:13;95656.38;;;16.28;35.48
44079;BME280;29744;49.078;12.878;2024-03-08T20:46:16;95658.66;;;16.26;35.42
44079;BME280;29744;49.078;12.878;2024-03-08T20:51:17;95648.53;;;16.23;35.31
44079;BME280;29744;49.078;12.878;2024-03-08T20:56:18;95650.03;;;16.21;35.25
44079;BME280;29744;49.078;12.878;2024-03-08T21:01:18;95631.00;;;16.17;35.54
44079;BME280;29744;49.078;12.878;2024-03-08T21:06:19;95629.81;;;16.15;35.49
44079;BME280;29744;49.078;12.878;2024-03-08T21:11:21;95620.81;;;16.10;35.69
44079;BME280;29744;49.078;12.878;2024-03-08T21:16:23;95618.03;;;16.07;35.23
44079;BME280;29744;49.078;12.878;2024-03-08T21:21:23;95617.19;;;16.03;35.30
44079;BME280;29744;49.078;12.878;2024-03-08T21:26:25;95611.69;;;15.99;35.52
44079;BME280;29744;49.078;12.878;2024-03-08T21:31:26;95611.97;;;15.94;35.77
44079;BME280;29744;49.078;12.878;2024-03-08T21:36:28;95610.31;;;15.90;35.40
44079;BME280;29744;49.078;12.878;2024-03-08T21:41:29;95608.31;;;15.87;36.01
44079;BME280;29744;49.078;12.878;2024-03-08T21:46:29;95613.22;;;15.81;36.01
44079;BME280;29744;49.078;12.878;2024-03-08T21:51:30;95604.19;;;15.77;35.73
44079;BME280;29744;49.078;12.878;2024-03-08T21:56:30;95598.28;;;15.71;35.83
44079;BME280;29744;49.078;12.878;2024-03-08T22:01:31;95598.56;;;15.66;35.47
44079;BME280;29744;49.078;12.878;2024-03-08T22:06:32;95591.16;;;15.63;35.95
44079;BME280;29744;49.078;12.878;2024-03-08T22:11:32;95586.00;;;15.58;35.68
44079;BME280;29744;49.078;12.878;2024-03-08T22:16:33;95587.50;;;15.56;36.08
44079;BME280;29744;49.078;12.878;2024-03-08T22:21:36;95580.44;;;15.51;36.06
44079;BME280;29744;49.078;12.878;2024-03-08T22:26:36;95577.66;;;15.48;36.34
44079;BME280;29744;49.078;12.878;2024-03-08T22:31:36;95569.47;;;15.44;35.96
44079;BME280;29744;49.078;12.878;2024-03-08T22:36:39;95582.53;;;15.42;35.95
44079;BME280;29744;49.078;12.878;2024-03-08T22:41:39;95565.09;;;15.39;36.13
44079;BME280;29744;49.078;12.878;2024-03-08T22:46:40;95563.88;;;15.37;36.21
44079;BME280;29744;49.078;12.878;2024-03-08T22:51:40;95561.88;;;15.34;36.05
44079;BME280;29744;49.078;12.878;2024-03-08T22:56:43;95570.69;;;15.31;36.19
44079;BME280;29744;49.078;12.878;2024-03-08T23:01:46;95560.94;;;15.26;36.12
44079;BME280;29744;49.078;12.878;2024-03-08T23:06:47;95558.94;;;15.23;36.25
44079;BME280;29744;49.078;12.878;2024-03-08T23:11:47;95556.91;;;15.20;36.51
44079;BME280;29744;49.078;12.878;2024-03-08T23:16:49;95554.13;;;15.17;35.89
44079;BME280;29744;49.078;12.878;2024-03-08T23:21:50;95554.03;;;15.13;36.36
44079;BME280;29744;49.078;12.878;2024-03-08T23:26:50;95548.56;;;15.09;36.37
44079;BME280;29744;49.078;12.878;2024-03-08T23:31:51;95542.72;;;15.07;36.58
44079;BME280;29744;49.078;12.878;2024-03-08T23:36:52;95535.66;;;15.03;36.62
44079;BME280;29744;49.078;12.878;2024-03-08T23:41:52;95534.41;;;15.00;36.55
44079;BME280;29744;49.078;12.878;2024-03-08T23:46:53;95528.13;;;14.96;36.32
44079;BME280;29744;49.078;12.878;2024-03-08T23:51:54;95518.81;;;14.94;36.43
44079;BME280;29744;49.078;12.878;2024-03-08T23:56:54;95510.63;;;14.90;36.74
